Time;durP1;ratioP1;P1;durP2;ratioP2;P2;SDS_P1;SDS_P2;PMS_P1;PMS_P2;Temp;Humidity;BMP_temperature;BMP_pressure;BME280_temperature;BME280_humidity;BME280_pressure;Samples;Min_cycle;Max_cycle;Signal;HPM_P1;HPM_P2
2022/06/21 00:00:11;;;;;;;1.98;1.45;;;17.30;94.80;;;;;;4161358;28;20360;-69
2022/06/21 00:02:13;;;;;;;2.65;1.38;;;17.30;94.30;;;;;;4156167;28;20091;-69
2022/06/21 00:04:14;;;;;;;1.25;1.10;;;17.20;94.30;;;;;;4163286;28;20437;-68
2022/06/21 00:06:20;;;;;;;3.20;1.50;;;17.20;94.70;;;;;;4160565;28;20061;-69
2022/06/21 00:08:30;;;;;;;2.40;1.38;;;17.10;94.60;;;;;;4159780;28;20489;-69
2022/06/21 00:10:34;;;;;;;1.70;1.27;;;17.10;94.70;;;;;;4160342;28;20520;-69
2022/06/21 00:12:34;;;;;;;3.08;1.50;;;17.10;94.60;;;;;;4163173;28;20382;-68
2022/06/21 00:14:35;;;;;;;2.00;1.23;;;17.00;95.50;;;;;;4161641;28;20112;-69
2022/06/21 00:16:36;;;;;;;2.72;1.50;;;17.00;94.90;;;;;;4161969;28;20034;-69
2022/06/21 00:18:38;;;;;;;1.80;1.35;;;16.90;94.70;;;;;;4160353;28;20056;-69
2022/06/21 00:20:40;;;;;;;4.22;1.60;;;16.90;95.40;;;;;;4160582;28;20030;-69
2022/06/21 00:22:40;;;;;;;1.50;1.13;;;16.90;95.10;;;;;;4160996;28;20081;-69
2022/06/21 00:24:41;;;;;;;4.22;1.80;;;16.90;95.10;;;;;;4162625;28;20038;-69
2022/06/21 00:26:43;;;;;;;2.30;1.40;;;16.80;95.50;;;;;;4161274;28;20045;-69
2022/06/21 00:28:44;;;;;;;2.80;1.67;;;16.80;96.20;;;;;;4159786;28;20568;-69
2022/06/21 00:30:47;;;;;;;2.90;1.90;;;16.80;96.70;;;;;;4162073;28;20033;-69
2022/06/21 00:32:50;;;;;;;1.80;1.38;;;16.70;96.40;;;;;;4160470;28;20041;-69
2022/06/21 00:34:51;;;;;;;2.70;1.48;;;16.70;95.90;;;;;;4160360;28;20044;-69
2022/06/21 00:36:51;;;;;;;4.57;1.60;;;16.70;97.10;;;;;;4159150;28;20061;-68
2022/06/21 00:38:53;;;;;;;3.05;1.60;;;16.60;96.90;;;;;;4160667;28;20044;-69
2022/06/21 00:40:57;;;;;;;3.03;1.75;;;16.60;96.90;;;;;;4160697;28;20089;-69
2022/06/21 00:43:18;;;;;;;1.63;1.40;;;16.60;97.00;;;;;;4162477;28;20049;-68
2022/06/21 00:45:49;;;;;;;2.13;1.35;;;16.60;96.40;;;;;;4160419;28;20030;-69
2022/06/21 00:47:56;;;;;;;2.92;1.40;;;16.60;97.10;;;;;;4160296;28;20068;-69
2022/06/21 00:50:00;;;;;;;3.58;1.60;;;16.60;96.60;;;;;;4157221;28;20171;-69
2022/06/21 00:52:17;;;;;;;3.05;1.60;;;16.60;96.10;;;;;;4161603;28;20042;-69
2022/06/21 00:54:56;;;;;;;2.42;1.33;;;16.60;96.10;;;;;;4151342;28;20408;-69
2022/06/21 00:57:04;;;;;;;1.60;1.30;;;16.60;96.20;;;;;;4158385;28;20037;-68
2022/06/21 00:59:18;;;;;;;2.30;1.50;;;16.50;96.00;;;;;;4160885;28;20120;-68
2022/06/21 01:01:22;;;;;;;3.00;1.63;;;16.40;96.30;;;;;;4158409;28;20033;-67
2022/06/21 01:03:34;;;;;;;2.78;1.45;;;16.40;96.50;;;;;;4158164;28;20028;-67
2022/06/21 01:05:39;;;;;;;3.10;1.67;;;16.30;96.40;;;;;;4157676;28;20041;-67
2022/06/21 01:07:41;;;;;;;2.08;1.52;;;16.30;97.50;;;;;;4160064;28;20038;-67
2022/06/21 01:10:13;;;;;;;2.13;1.35;;;16.20;97.80;;;;;;4158959;28;20088;-67
2022/06/21 01:12:38;;;;;;;3.53;1.67;;;16.30;97.90;;;;;;4147544;28;20087;-67
2022/06/21 01:14:45;;;;;;;2.65;1.85;;;16.20;97.90;;;;;;4160277;28;20037;-67
2022/06/21 01:16:46;;;;;;;3.10;1.80;;;16.20;97.80;;;;;;4147542;28;20516;-67
2022/06/21 01:18:47;;;;;;;3.38;1.83;;;16.20;97.60;;;;;;4152109;28;20029;-67
2022/06/21 01:20:51;;;;;;;2.97;1.60;;;16.20;97.20;;;;;;4158927;28;20033;-67
2022/06/21 01:23:04;;;;;;;3.80;1.65;;;16.20;97.10;;;;;;4156331;28;20581;-67
2022/06/21 01:25:43;;;;;;;3.30;1.63;;;16.20;96.70;;;;;;4158524;28;20116;-67
2022/06/21 01:27:44;;;;;;;3.80;1.90;;;16.10;97.50;;;;;;4157083;28;20136;-67
2022/06/21 01:29:45;;;;;;;2.88;1.95;;;16.10;98.00;;;;;;4158152;28;20030;-67
2022/06/21 01:31:47;;;;;;;4.03;1.85;;;16.10;98.90;;;;;;4159688;28;20394;-67
2022/06/21 01:33:48;;;;;;;2.33;1.60;;;16.00;99.90;;;;;;4174593;28;20378;-67
2022/06/21 01:35:52;;;;;;;2.75;1.80;;;16.00;99.90;;;;;;4158231;28;20033;-67
2022/06/21 01:37:52;;;;;;;2.80;2.05;;;16.00;99.90;;;;;;4146633;28;20513;-67
2022/06/21 01:40:12;;;;;;;3.65;2.15;;;16.00;99.70;;;;;;4145020;28;20034;-67
2022/06/21 01:42:13;;;;;;;2.75;1.88;;;16.00;99.90;;;;;;4157266;28;20033;-67
2022/06/21 01:44:20;;;;;;;2.17;1.50;;;15.90;99.90;;;;;;4160068;28;20428;-67
2022/06/21 01:46:25;;;;;;;3.88;1.60;;;15.90;99.80;;;;;;4158514;28;20068;-67
2022/06/21 01:48:31;;;;;;;5.20;2.08;;;15.90;98.90;;;;;;4159572;28;20386;-67
2022/06/21 01:50:34;;;;;;;2.47;1.77;;;15.90;98.50;;;;;;4158692;28;20033;-67
2022/06/21 01:52:36;;;;;;;;;;;15.80;97.40;;;;;;4157215;28;20029;-67
2022/06/21 01:54:42;;;;;;;3.50;1.90;;;15.70;97.90;;;;;;4175237;28;20396;-68
2022/06/21 01:56:45;;;;;;;2.30;1.55;;;15.60;98.10;;;;;;4152359;28;20068;-67
2022/06/21 01:58:52;;;;;;;3.95;1.98;;;15.50;98.70;;;;;;4157597;28;20037;-67
2022/06/21 02:01:00;;;;;;;3.78;2.10;;;15.50;99.00;;;;;;4157500;28;20029;-67
2022/06/21 02:03:09;;;;;;;2.28;1.50;;;15.50;99.80;;;;;;4158217;28;20045;-67
2022/06/21 02:05:18;;;;;;;4.47;2.15;;;15.50;99.80;;;;;;4157734;28;20034;-67
2022/06/21 02:07:24;;;;;;;3.15;2.10;;;15.40;99.90;;;;;;4154347;28;20049;-67
2022/06/21 02:09:31;;;;;;;4.40;1.98;;;15.50;99.90;;;;;;4153099;28;20029;-67
2022/06/21 02:11:42;;;;;;;3.83;2.20;;;15.50;99.90;;;;;;4157137;28;20064;-67
2022/06/21 02:16:23;;;;;;;2.40;1.45;;;15.50;99.90;;;;;;4154724;28;20128;-67
2022/06/21 02:18:27;;;;;;;3.03;1.92;;;15.50;99.40;;;;;;4155330;28;20601;-67
2022/06/21 02:20:53;;;;;;;1.90;1.60;;;15.50;99.90;;;;;;4160914;28;20037;-70
2022/06/21 02:22:54;;;;;;;3.20;1.70;;;15.50;99.30;;;;;;4170501;28;20065;-70
2022/06/21 02:24:55;;;;;;;3.20;1.80;;;15.40;99.20;;;;;;4168953;28;20029;-70
2022/06/21 02:26:59;;;;;;;2.13;1.55;;;15.40;99.10;;;;;;4168617;28;20105;-70
2022/06/21 02:29:01;;;;;;;3.15;1.83;;;15.40;98.40;;;;;;4171400;28;20076;-70
2022/06/21 02:31:01;;;;;;;1.88;1.40;;;15.30;98.40;;;;;;4172251;28;25254;-70
2022/06/21 02:33:05;;;;;;;3.05;1.70;;;15.10;98.70;;;;;;4173852;28;20030;-70
2022/06/21 02:35:15;;;;;;;2.50;1.52;;;15.10;99.00;;;;;;4156810;28;20033;-70
2022/06/21 02:37:16;;;;;;;2.38;2.00;;;15.10;99.40;;;;;;4171252;28;20021;-70
2022/06/21 02:39:19;;;;;;;3.95;1.80;;;15.00;99.50;;;;;;4168178;28;20509;-70
2022/06/21 02:41:28;;;;;;;2.65;1.75;;;15.00;99.90;;;;;;4166765;28;20060;-70
2022/06/21 02:43:39;;;;;;;2.50;1.85;;;15.00;99.90;;;;;;4150934;28;20026;-70
2022/06/21 02:46:01;;;;;;;3.15;1.63;;;15.00;99.90;;;;;;4149839;28;20038;-70
2022/06/21 02:48:08;;;;;;;3.30;1.85;;;15.00;99.90;;;;;;4171586;28;20061;-70
2022/06/21 02:50:27;;;;;;;3.38;1.70;;;15.00;99.90;;;;;;4154713;28;20041;-70
2022/06/21 02:52:37;;;;;;;3.63;1.77;;;15.00;99.90;;;;;;4165879;28;20029;-70
2022/06/21 02:54:37;;;;;;;3.40;1.77;;;15.00;99.90;;;;;;4172251;28;20112;-70
2022/06/21 02:56:51;;;;;;;3.55;1.70;;;15.00;99.90;;;;;;4170786;28;20026;-70
2022/06/21 02:58:57;;;;;;;3.53;2.20;;;15.00;99.90;;;;;;4190909;28;20101;-70
2022/06/21 03:01:00;;;;;;;3.83;1.65;;;15.00;99.90;;;;;;4167018;28;20052;-70
2022/06/21 03:03:05;;;;;;;4.68;2.15;;;15.00;99.90;;;;;;4172577;28;20045;-70
2022/06/21 03:05:13;;;;;;;3.53;2.05;;;15.00;99.90;;;;;;4172820;28;20034;-70
2022/06/21 03:07:18;;;;;;;4.10;2.10;;;14.90;99.90;;;;;;4171918;28;20551;-70
2022/06/21 03:09:23;;;;;;;3.20;1.88;;;14.80;99.90;;;;;;4171517;28;20037;-70
2022/06/21 03:11:29;;;;;;;4.65;2.10;;;14.80;99.90;;;;;;4166464;28;20033;-70
2022/06/21 03:13:34;;;;;;;3.25;1.90;;;14.60;99.90;;;;;;4172942;28;20033;-70
2022/06/21 03:15:36;;;;;;;3.90;2.30;;;14.40;99.90;;;;;;4172407;28;20034;-70
2022/06/21 03:17:54;;;;;;;4.63;2.53;;;14.20;99.90;;;;;;4171048;28;20045;-70
2022/06/21 03:19:55;;;;;;;3.15;2.10;;;14.00;99.90;;;;;;4173035;28;20033;-70
2022/06/21 03:21:57;;;;;;;4.13;2.25;;;13.90;99.90;;;;;;4173612;28;20041;-70
2022/06/21 03:23:59;;;;;;;4.95;2.25;;;13.90;99.90;;;;;;4171123;28;20030;-70
2022/06/21 03:26:02;;;;;;;3.40;2.10;;;13.90;99.90;;;;;;4173678;28;20101;-70
2022/06/21 03:28:03;;;;;;;4.47;2.25;;;14.00;99.90;;;;;;4172594;28;20096;-70
2022/06/21 03:30:05;;;;;;;3.85;2.10;;;14.10;99.90;;;;;;4173489;28;20440;-70
2022/06/21 03:32:05;;;;;;;2.63;1.98;;;14.20;99.90;;;;;;4171958;28;20025;-70
2022/06/21 03:34:09;;;;;;;3.35;2.25;;;14.20;99.90;;;;;;4172917;28;20398;-70
2022/06/21 03:36:14;;;;;;;4.72;2.28;;;14.30;99.90;;;;;;4169673;28;20021;-70
2022/06/21 03:38:14;;;;;;;4.10;2.40;;;14.30;99.90;;;;;;4171833;28;20056;-70
2022/06/21 03:42:46;;;;;;;3.05;2.10;;;14.50;99.90;;;;;;4167006;28;20037;-70
2022/06/21 03:44:59;;;;;;;4.70;2.25;;;14.50;99.90;;;;;;4168863;28;20097;-70
2022/06/21 03:47:18;;;;;;;;;;;14.60;99.90;;;;;;4165069;28;20482;-70
2022/06/21 03:49:48;;;;;;;4.05;1.98;;;14.60;99.90;;;;;;4162628;28;19964;-69
2022/06/21 03:51:50;;;;;;;2.25;1.65;;;14.60;99.90;;;;;;4161065;28;20609;-69
2022/06/21 03:53:56;;;;;;;3.43;2.63;;;14.70;99.90;;;;;;4171601;28;20034;-69
2022/06/21 03:56:13;;;;;;;3.45;2.60;;;14.60;99.90;;;;;;4182786;28;20041;-69
2022/06/21 03:58:32;;;;;;;3.20;2.00;;;14.70;99.90;;;;;;4162719;28;20034;-70
2022/06/21 04:00:44;;;;;;;3.95;1.80;;;14.60;99.90;;;;;;4158872;28;20033;-70
2022/06/21 04:03:09;;;;;;;4.03;2.20;;;14.70;99.90;;;;;;4161886;28;20022;-69
2022/06/21 04:05:15;;;;;;;4.05;2.17;;;14.70;99.90;;;;;;4166096;28;20053;-69
2022/06/21 04:07:27;;;;;;;3.53;2.28;;;14.70;99.90;;;;;;4181384;28;20494;-69
2022/06/21 04:09:43;;;;;;;5.72;2.55;;;14.70;99.90;;;;;;4167450;28;20056;-70
2022/06/21 04:12:01;;;;;;;3.17;2.38;;;14.70;99.90;;;;;;4176695;28;20033;-70
2022/06/21 04:14:16;;;;;;;5.35;2.58;;;14.70;99.90;;;;;;4168893;28;20038;-70
2022/06/21 04:16:36;;;;;;;3.60;2.28;;;14.70;99.90;;;;;;4170074;28;20038;-70
2022/06/21 04:19:11;;;;;;;4.60;2.50;;;14.70;99.90;;;;;;4167107;28;20503;-70
2022/06/21 04:21:32;;;;;;;3.40;2.13;;;14.70;99.90;;;;;;4163559;28;20124;-70
2022/06/21 04:23:41;;;;;;;2.63;2.10;;;14.70;99.90;;;;;;4161691;28;20493;-70
2022/06/21 04:26:02;;;;;;;3.22;2.25;;;14.80;99.90;;;;;;4163704;28;20049;-70
2022/06/21 04:28:15;;;;;;;5.82;2.72;;;14.70;99.90;;;;;;4168410;28;20034;-70
2022/06/21 04:30:25;;;;;;;5.18;2.40;;;14.70;99.90;;;;;;4183168;28;20033;-70
2022/06/21 04:32:38;;;;;;;4.43;2.55;;;14.80;99.90;;;;;;4164303;28;20044;-70
2022/06/21 04:34:51;;;;;;;4.28;2.60;;;14.80;99.90;;;;;;4166431;28;20037;-70
2022/06/21 04:37:07;;;;;;;6.22;2.65;;;14.80;99.90;;;;;;4166246;28;20060;-70
2022/06/21 04:39:37;;;;;;;3.95;2.60;;;14.90;99.90;;;;;;4168245;28;20033;-70
2022/06/21 04:42:01;;;;;;;4.80;2.72;;;14.90;99.90;;;;;;4145896;28;20083;-70
2022/06/21 04:44:16;;;;;;;4.40;2.63;;;14.90;99.90;;;;;;4165729;28;20042;-69
2022/06/21 04:46:29;;;;;;;4.97;2.45;;;15.00;99.90;;;;;;4161574;28;20033;-69
2022/06/21 04:49:01;;;;;;;3.70;2.65;;;15.00;99.90;;;;;;4162833;28;20166;-69
2022/06/21 04:51:08;;;;;;;5.80;2.63;;;15.00;99.90;;;;;;4144799;28;20038;-69
2022/06/21 04:53:21;;;;;;;5.25;2.92;;;15.10;99.90;;;;;;4162441;28;20083;-69
2022/06/21 04:55:30;;;;;;;3.73;2.70;;;15.10;99.90;;;;;;4164165;28;20053;-69
2022/06/21 04:57:32;;;;;;;6.07;2.58;;;15.10;99.90;;;;;;4163826;28;20345;-69
2022/06/21 04:59:42;;;;;;;7.00;2.70;;;15.20;99.90;;;;;;4160779;28;20548;-68
2022/06/21 05:01:43;;;;;;;6.32;2.38;;;15.10;99.90;;;;;;4156515;28;20029;-68
2022/06/21 05:03:44;;;;;;;5.22;2.28;;;15.10;99.90;;;;;;4153724;28;20032;-68
2022/06/21 05:05:44;;;;;;;5.22;2.97;;;14.90;99.90;;;;;;4152905;28;20607;-68
2022/06/21 05:07:59;;;;;;;3.17;2.35;;;14.90;99.90;;;;;;4151378;28;20048;-68
2022/06/21 05:10:01;;;;;;;2.67;2.22;;;14.90;99.90;;;;;;4161536;28;20087;-68
2022/06/21 05:12:10;;;;;;;2.90;2.55;;;15.00;99.90;;;;;;4160028;28;20179;-68
2022/06/21 05:14:36;;;;;;;3.92;2.33;;;15.00;99.90;;;;;;4154061;28;20033;-68
2022/06/21 05:16:41;;;;;;;3.83;2.53;;;15.10;99.90;;;;;;4156629;28;20025;-68
2022/06/21 05:18:58;;;;;;;3.40;2.20;;;15.20;99.90;;;;;;4160615;28;20026;-68
2022/06/21 05:21:05;;;;;;;4.03;2.10;;;15.20;99.90;;;;;;4158242;28;20040;-68
2022/06/21 05:23:08;;;;;;;4.45;2.70;;;15.30;99.90;;;;;;4156315;28;20033;-68
2022/06/21 05:25:36;;;;;;;5.18;2.75;;;15.20;99.90;;;;;;4154313;28;20129;-68
2022/06/21 05:27:53;;;;;;;5.68;3.03;;;15.30;99.90;;;;;;4163669;23;20045;-66
2022/06/21 05:30:03;;;;;;;6.95;2.83;;;15.40;99.90;;;;;;4154697;28;20064;-67
2022/06/21 05:32:13;;;;;;;5.05;2.92;;;15.40;99.90;;;;;;4162689;28;20489;-66
2022/06/21 05:34:23;;;;;;;5.57;3.28;;;15.40;99.90;;;;;;4142294;28;20039;-66
2022/06/21 05:36:39;;;;;;;8.23;3.08;;;15.50;99.90;;;;;;4163267;28;20029;-66
2022/06/21 05:39:11;;;;;;;7.90;3.17;;;15.60;99.90;;;;;;4154663;28;20489;-66
2022/06/21 05:41:30;;;;;;;6.43;3.25;;;15.70;99.90;;;;;;4157368;28;20033;-66
2022/06/21 05:43:46;;;;;;;4.72;2.80;;;15.70;99.90;;;;;;4155598;28;20034;-66
2022/06/21 05:45:52;;;;;;;3.65;2.42;;;15.80;99.90;;;;;;4156796;28;20499;-66
2022/06/21 05:47:59;;;;;;;5.50;3.15;;;15.90;99.90;;;;;;4155653;28;20498;-66
2022/06/21 05:50:01;;;;;;;7.28;3.08;;;16.20;99.90;;;;;;4158876;28;20486;-67
2022/06/21 05:52:06;;;;;;;8.48;3.70;;;16.60;99.90;;;;;;4140372;28;20030;-67
2022/06/21 05:54:14;;;;;;;5.82;2.80;;;17.00;99.90;;;;;;4159446;28;20499;-67
2022/06/21 05:56:19;;;;;;;7.40;3.13;;;17.40;99.90;;;;;;4157333;28;20086;-67
2022/06/21 05:58:29;;;;;;;7.30;2.90;;;17.60;99.90;;;;;;4156212;28;20116;-67
2022/06/21 06:00:35;;;;;;;6.40;2.55;;;18.10;99.90;;;;;;4153388;28;20122;-67
2022/06/21 06:02:49;;;;;;;6.85;2.90;;;18.50;99.90;;;;;;4158344;28;20033;-67
2022/06/21 06:04:58;;;;;;;4.65;2.00;;;19.00;99.90;;;;;;4154811;28;20116;-67
2022/06/21 06:07:01;;;;;;;4.25;2.20;;;19.50;99.90;;;;;;4137764;28;20041;-67
2022/06/21 06:09:15;;;;;;;7.57;2.60;;;19.70;97.90;;;;;;4139391;28;20042;-67
2022/06/21 06:11:57;;;;;;;7.28;2.35;;;19.90;96.90;;;;;;4158565;28;20091;-67
2022/06/21 06:13:53;;;;;;;5.22;2.15;;;20.10;96.60;;;;;;4153690;28;20033;-67
2022/06/21 06:15:58;;;;;;;8.15;2.30;;;20.40;96.60;;;;;;4136953;28;20049;-68
2022/06/21 06:18:28;;;;;;;6.10;1.85;;;20.50;95.10;;;;;;4124983;28;20059;-68
2022/06/21 06:20:38;;;;;;;3.83;1.70;;;20.60;94.50;;;;;;4157951;28;20037;-67
2022/06/21 06:22:44;;;;;;;4.63;1.40;;;20.70;93.10;;;;;;4157909;28;20456;-68
2022/06/21 06:24:59;;;;;;;4.78;1.80;;;20.80;93.90;;;;;;4158339;28;20071;-68
2022/06/21 06:27:01;;;;;;;3.78;1.23;;;21.10;93.00;;;;;;4156894;28;20476;-68
2022/06/21 06:29:26;;;;;;;4.68;1.88;;;21.20;92.10;;;;;;4153671;28;20054;-68
2022/06/21 06:31:36;;;;;;;3.10;1.50;;;21.10;92.30;;;;;;4140182;28;20033;-68
2022/06/21 06:33:44;;;;;;;3.45;1.63;;;21.20;91.90;;;;;;4155401;28;20414;-68
2022/06/21 06:35:46;;;;;;;2.95;1.25;;;21.20;91.90;;;;;;4157579;28;20037;-68
2022/06/21 06:37:47;;;;;;;;;;;21.20;91.30;;;;;;4136425;28;20041;-68
2022/06/21 06:39:48;;;;;;;2.15;1.23;;;21.20;92.10;;;;;;4155341;28;20000;-68
2022/06/21 06:42:00;;;;;;;6.05;1.25;;;21.20;90.80;;;;;;4157830;28;20506;-68
2022/06/21 06:44:03;;;;;;;3.00;1.00;;;21.10;90.30;;;;;;4162598;28;20551;-68
2022/06/21 06:46:05;;;;;;;4.35;1.30;;;21.20;91.10;;;;;;4154967;28;20432;-68
2022/06/21 06:48:12;;;;;;;3.85;1.17;;;21.00;90.00;;;;;;4158038;28;20049;-68
2022/06/21 06:50:16;;;;;;;5.03;1.65;;;21.20;90.70;;;;;;4152617;28;20041;-68
2022/06/21 06:52:20;;;;;;;7.93;2.13;;;20.90;90.20;;;;;;4159322;28;20057;-68
2022/06/21 06:54:50;;;;;;;3.75;1.60;;;21.00;90.50;;;;;;4155209;28;20025;-68
2022/06/21 06:57:05;;;;;;;2.95;1.38;;;20.80;90.00;;;;;;4131964;28;20037;-68
2022/06/21 06:59:14;;;;;;;2.90;1.60;;;20.90;90.40;;;;;;4140476;28;20498;-68
2022/06/21 07:01:18;;;;;;;3.78;1.90;;;20.80;89.50;;;;;;4155773;28;20034;-68
2022/06/21 07:03:23;;;;;;;6.95;2.10;;;20.80;90.30;;;;;;4157900;28;20030;-68
2022/06/21 07:05:33;;;;;;;6.55;2.40;;;20.80;90.80;;;;;;4157390;28;20037;-68
2022/06/21 07:08:01;;;;;;;8.07;3.17;;;20.80;90.30;;;;;;4155500;28;20512;-68
2022/06/21 07:10:05;;;;;;;5.78;2.50;;;20.90;89.90;;;;;;4154938;28;20034;-68
2022/06/21 07:12:18;;;;;;;6.13;2.63;;;20.80;89.90;;;;;;4155436;28;20699;-68
2022/06/21 07:14:22;;;;;;;6.97;2.28;;;20.90;90.70;;;;;;4157575;28;20029;-68
2022/06/21 07:16:25;;;;;;;3.67;1.90;;;21.00;88.90;;;;;;4161010;28;20490;-68
2022/06/21 07:18:34;;;;;;;2.47;1.33;;;20.80;87.90;;;;;;4153924;28;20040;-68
2022/06/21 07:20:40;;;;;;;4.47;1.80;;;20.90;90.30;;;;;;4138907;28;20371;-67
2022/06/21 07:22:42;;;;;;;4.10;1.75;;;21.00;90.00;;;;;;4159750;28;20029;-68
2022/06/21 07:24:54;;;;;;;4.45;1.30;;;21.10;88.90;;;;;;4159837;28;20057;-68
2022/06/21 07:27:03;;;;;;;5.30;1.60;;;21.00;86.40;;;;;;4155758;28;20041;-68
2022/06/21 07:29:13;;;;;;;4.35;1.92;;;21.10;87.20;;;;;;4155948;28;20398;-66
2022/06/21 07:31:28;;;;;;;3.80;1.63;;;21.00;88.20;;;;;;4142452;28;20702;-67
2022/06/21 07:33:35;;;;;;;5.65;1.92;;;21.20;88.60;;;;;;4155840;28;20087;-67
2022/06/21 07:35:43;;;;;;;3.70;1.77;;;21.20;88.10;;;;;;4155233;28;20073;-67
2022/06/21 07:37:51;;;;;;;4.82;1.50;;;21.20;87.20;;;;;;4136508;28;20037;-67
2022/06/21 07:40:12;;;;;;;5.43;1.67;;;21.30;86.80;;;;;;4161497;28;20029;-67
2022/06/21 07:42:15;;;;;;;3.65;1.42;;;21.40;87.30;;;;;;4154781;28;20037;-67
2022/06/21 07:44:32;;;;;;;3.25;1.35;;;21.40;87.20;;;;;;4140959;28;20508;-66
2022/06/21 07:46:45;;;;;;;2.72;1.20;;;21.40;87.80;;;;;;4155699;28;20030;-67
2022/06/21 07:48:51;;;;;;;3.78;1.17;;;21.40;87.60;;;;;;4156451;28;20501;-67
2022/06/21 07:50:57;;;;;;;3.92;1.48;;;21.60;90.50;;;;;;4153889;28;20061;-67
2022/06/21 07:53:16;;;;;;;2.75;1.05;;;21.60;86.70;;;;;;4157359;28;20045;-66
2022/06/21 07:55:38;;;;;;;2.25;1.13;;;21.70;87.40;;;;;;4158292;28;20033;-66
2022/06/21 07:57:54;;;;;;;2.03;1.08;;;21.60;86.30;;;;;;4139714;28;20022;-66
2022/06/21 08:00:07;;;;;;;2.70;1.13;;;21.40;83.30;;;;;;4152723;28;20109;-66
2022/06/21 08:07:04;;;;;;;5.57;1.30;;;21.20;85.10;;;;;;4157451;28;20568;-66
2022/06/21 08:09:42;;;;;;;4.10;1.48;;;21.20;86.30;;;;;;4154022;28;20504;-66
2022/06/21 08:11:46;;;;;;;3.97;1.02;;;21.30;84.10;;;;;;4154520;28;20023;-66
2022/06/21 08:13:47;;;;;;;6.70;1.20;;;21.30;86.10;;;;;;4139537;28;20046;-67
2022/06/21 08:16:12;;;;;;;2.42;1.00;;;21.30;83.50;;;;;;4135583;28;20477;-67
2022/06/21 08:18:31;;;;;;;2.65;1.25;;;21.30;86.10;;;;;;4153732;28;20038;-67
2022/06/21 08:20:44;;;;;;;3.53;1.45;;;21.30;84.30;;;;;;4152178;28;20083;-66
2022/06/21 08:23:07;;;;;;;2.33;1.30;;;21.40;85.00;;;;;;4159943;28;20515;-66
2022/06/21 08:25:49;;;;;;;1.85;0.73;;;21.40;83.70;;;;;;4157685;28;20041;-66
2022/06/21 08:27:52;;;;;;;2.67;1.08;;;21.40;83.20;;;;;;4158183;28;20080;-67
2022/06/21 08:30:12;;;;;;;3.83;1.40;;;21.50;85.10;;;;;;4156112;28;20033;-67
2022/06/21 08:32:34;;;;;;;3.50;1.15;;;21.40;85.40;;;;;;4157573;28;20040;-66
2022/06/21 08:34:46;;;;;;;6.00;1.48;;;21.40;83.40;;;;;;4139112;28;20117;-67
2022/06/21 08:36:56;;;;;;;2.17;1.20;;;21.30;85.00;;;;;;4157294;28;20034;-67
2022/06/21 08:39:28;;;;;;;2.92;1.20;;;21.50;84.30;;;;;;4154486;28;20033;-67
2022/06/21 08:41:55;;;;;;;3.45;1.10;;;21.60;84.30;;;;;;4154212;28;20079;-66
2022/06/21 08:44:14;;;;;;;2.45;1.20;;;21.70;82.80;;;;;;4157346;28;20076;-67
2022/06/21 08:46:39;;;;;;;4.90;1.35;;;21.70;82.60;;;;;;4141855;28;20057;-67
2022/06/21 08:48:58;;;;;;;4.07;1.10;;;21.70;81.40;;;;;;4156293;28;20482;-67
2022/06/21 08:51:04;;;;;;;2.85;1.00;;;21.70;82.00;;;;;;4141085;28;20057;-68
2022/06/21 08:53:34;;;;;;;4.10;1.17;;;21.80;83.70;;;;;;4158166;28;20422;-67
2022/06/21 08:55:48;;;;;;;3.95;1.63;;;21.90;82.40;;;;;;4153600;28;20037;-67
2022/06/21 08:58:00;;;;;;;4.38;1.60;;;22.00;82.20;;;;;;4155002;28;20108;-66
2022/06/21 09:00:24;;;;;;;3.10;1.20;;;22.10;81.20;;;;;;4154886;28;20040;-67
2022/06/21 09:02:34;;;;;;;3.42;1.30;;;22.10;82.80;;;;;;4158850;28;20079;-67
2022/06/21 09:05:01;;;;;;;3.25;1.20;;;22.30;81.80;;;;;;4152848;28;20030;-67
2022/06/21 09:07:16;;;;;;;3.42;1.33;;;22.40;86.20;;;;;;4151739;28;20378;-67
2022/06/21 09:09:58;;;;;;;3.25;1.00;;;22.50;85.80;;;;;;4139368;28;20075;-67
2022/06/21 09:12:21;;;;;;;2.55;1.17;;;22.40;78.20;;;;;;4137274;28;20044;-67
2022/06/21 09:14:42;;;;;;;5.03;1.40;;;22.40;83.30;;;;;;4140150;28;20056;-66
2022/06/21 09:17:18;;;;;;;4.20;1.13;;;22.40;79.70;;;;;;4155116;28;20033;-66
2022/06/21 09:19:24;;;;;;;5.18;1.60;;;22.30;79.00;;;;;;4153495;28;20406;-67
2022/06/21 09:21:47;;;;;;;4.97;1.50;;;22.20;80.40;;;;;;4155030;28;20040;-66
2022/06/21 09:23:54;;;;;;;3.85;1.13;;;22.00;79.70;;;;;;4156198;28;20067;-66
2022/06/21 09:26:10;;;;;;;2.28;1.13;;;21.90;81.50;;;;;;4156233;28;20037;-66
2022/06/21 09:28:32;;;;;;;3.17;1.40;;;22.00;82.10;;;;;;4156576;28;20057;-67
2022/06/21 09:30:41;;;;;;;3.00;1.23;;;21.90;77.20;;;;;;4155344;28;20071;-66
2022/06/21 09:32:54;;;;;;;2.10;1.15;;;22.00;77.30;;;;;;4138508;28;20108;-66
2022/06/21 09:35:22;;;;;;;4.90;1.83;;;22.10;78.70;;;;;;4153891;28;20037;-67
2022/06/21 09:37:43;;;;;;;4.85;1.25;;;22.00;76.90;;;;;;4135007;28;20225;-66
2022/06/21 09:40:12;;;;;;;1.77;1.08;;;22.20;79.60;;;;;;4137258;28;20034;-66
2022/06/21 09:42:24;;;;;;;2.80;1.35;;;22.30;79.60;;;;;;4158076;28;20053;-67
2022/06/21 09:44:52;;;;;;;1.70;1.02;;;22.50;85.90;;;;;;4154689;28;20393;-67
2022/06/21 09:47:00;;;;;;;4.05;1.20;;;22.60;84.80;;;;;;4123849;28;20143;-67
2022/06/21 09:49:09;;;;;;;1.77;0.98;;;22.80;83.90;;;;;;4135329;28;20038;-67
2022/06/21 09:51:21;;;;;;;3.33;1.52;;;22.90;80.70;;;;;;4121586;28;20060;-66
2022/06/21 09:53:58;;;;;;;2.85;1.65;;;22.90;78.60;;;;;;4134532;28;20064;-66
2022/06/21 09:56:13;;;;;;;5.35;1.50;;;23.10;85.40;;;;;;4155967;28;20037;-66
2022/06/21 09:58:22;;;;;;;4.55;1.45;;;22.90;75.40;;;;;;4158372;28;20037;-66
2022/06/21 10:00:38;;;;;;;4.00;1.80;;;22.90;78.10;;;;;;4156377;28;20137;-66
2022/06/21 10:03:00;;;;;;;3.90;1.80;;;22.90;77.20;;;;;;4153508;28;20390;-66
2022/06/21 10:05:37;;;;;;;6.50;2.20;;;22.60;75.80;;;;;;4138729;28;20202;-66
2022/06/21 10:08:00;;;;;;;3.85;2.10;;;22.70;78.00;;;;;;4153523;28;20378;-66
2022/06/21 10:10:17;;;;;;;5.07;1.90;;;22.80;80.80;;;;;;4154413;28;20038;-67
2022/06/21 10:12:37;;;;;;;4.13;1.85;;;22.90;79.40;;;;;;4153914;28;20049;-66
2022/06/21 10:14:56;;;;;;;4.07;1.95;;;23.00;83.80;;;;;;4158070;28;20076;-66
2022/06/21 10:17:25;;;;;;;4.70;1.95;;;23.00;75.50;;;;;;4156217;28;20080;-66
2022/06/21 10:19:53;;;;;;;4.43;2.00;;;23.00;78.70;;;;;;4140221;28;20558;-67
2022/06/21 10:22:39;;;;;;;4.80;1.88;;;22.80;76.50;;;;;;4155945;28;20371;-67
2022/06/21 10:24:40;;;;;;;4.68;1.83;;;22.80;76.40;;;;;;4141358;28;20033;-66
2022/06/21 10:26:59;;;;;;;3.58;1.60;;;22.90;76.50;;;;;;4158126;28;20087;-67
2022/06/21 10:29:16;;;;;;;6.20;2.20;;;22.90;79.50;;;;;;4154204;28;20041;-66
2022/06/21 10:31:41;;;;;;;6.30;2.50;;;22.80;78.50;;;;;;4152656;28;20026;-66
2022/06/21 10:34:15;;;;;;;6.15;2.45;;;22.70;77.20;;;;;;4139397;28;20034;-66
2022/06/21 10:36:18;;;;;;;3.45;1.73;;;22.80;76.80;;;;;;4152793;28;20044;-66
2022/06/21 10:38:43;;;;;;;6.65;2.22;;;22.80;79.30;;;;;;4139860;28;20026;-66
2022/06/21 10:41:20;;;;;;;8.90;2.78;;;22.90;78.80;;;;;;4154009;28;20060;-66
2022/06/21 10:43:28;;;;;;;11.98;2.85;;;23.00;79.00;;;;;;4144978;28;20113;-66
2022/06/21 10:45:47;;;;;;;6.63;2.20;;;22.90;77.50;;;;;;4157734;28;20033;-66
2022/06/21 10:48:09;;;;;;;4.70;2.00;;;22.90;76.80;;;;;;4139476;28;20080;-66
2022/06/21 10:50:48;;;;;;;4.68;2.40;;;23.10;79.20;;;;;;4158988;28;20474;-66
2022/06/21 10:52:59;;;;;;;5.45;2.45;;;23.00;77.70;;;;;;4127689;28;20053;-67
2022/06/21 10:55:19;;;;;;;5.05;2.13;;;22.80;78.60;;;;;;4153038;28;20172;-67
2022/06/21 10:57:53;;;;;;;4.18;1.98;;;22.80;78.20;;;;;;4156256;28;20029;-67
2022/06/21 11:02:58;;;;;;;4.20;2.13;;;23.00;80.80;;;;;;4155132;28;20043;-66
2022/06/21 11:05:31;;;;;;;5.05;2.40;;;23.10;78.10;;;;;;4158134;28;20038;-66
2022/06/21 11:07:48;;;;;;;7.35;2.45;;;23.20;81.70;;;;;;4124230;28;20048;-66
2022/06/21 11:09:58;;;;;;;3.60;1.70;;;23.20;79.40;;;;;;4151322;28;20148;-67
2022/06/21 11:14:50;;;;;;;6.15;2.15;;;23.40;83.80;;;;;;4138401;28;20117;-67
2022/06/21 11:17:17;;;;;;;8.10;2.20;;;23.40;82.60;;;;;;4161085;28;20496;-68
2022/06/21 11:19:30;;;;;;;3.85;1.77;;;23.50;82.30;;;;;;4158557;28;20029;-68
2022/06/21 11:21:31;;;;;;;;;;;23.60;82.50;;;;;;4160539;28;20057;-67
2022/06/21 11:23:44;;;;;;;4.57;1.77;;;23.70;84.10;;;;;;4143751;28;20008;-68
2022/06/21 11:25:57;;;;;;;5.63;1.83;;;23.80;83.20;;;;;;4160159;28;20481;-68
2022/06/21 11:28:36;;;;;;;5.15;2.20;;;23.90;81.70;;;;;;4159170;28;20395;-68
2022/06/21 11:31:15;;;;;;;2.75;1.48;;;23.90;79.00;;;;;;4159204;28;20038;-68
2022/06/21 11:33:27;;;;;;;4.53;1.88;;;24.00;79.30;;;;;;4093455;28;20089;-68
2022/06/21 11:35:44;;;;;;;3.95;1.83;;;23.90;73.60;;;;;;4088438;28;20035;-68
2022/06/21 11:37:58;;;;;;;5.93;2.00;;;23.90;74.50;;;;;;4103160;28;20616;-67
2022/06/21 11:40:25;;;;;;;4.97;1.65;;;23.90;79.70;;;;;;4156081;28;20513;-67
2022/06/21 11:42:47;;;;;;;3.63;1.90;;;23.90;77.60;;;;;;4157445;28;20056;-67
2022/06/21 11:45:03;;;;;;;3.65;1.60;;;23.80;73.70;;;;;;4153052;28;20090;-68